Kezdőlap
METAR-TAF:

METAR-TAF

Repülőterek :

Muskogee, Oklahoma, Amerikai Egyesült Államok

földrajzi szélesség: 35-39-25N, földrajzi hosszúság: 095-21-35W, magasság: 185 m

Jelenlegi meteorológiai megfigyelések

A jelentés 9 perccel ezelõtt készült, 13:06 UTC
Szélcsend
Hőmérséklet 22°C
Páratartalom 88%
Légköri nyomás 1012 hPa
Látótávolság: 14.5 km
Szórványos felhőzet 500 lábon

METAR: KMKO 231306Z AUTO 00000KT 9SM SCT005 22/20 A2987 RMK AO2 T02170200

Idő: 08:15 (13:15 UTC)


TAF: hiányzik

Meteorológiai megfigyelések és előrejelzések több, mint 4000 repülőtéren (METAR és TAF jelentéseket).

A térképen piros és sárga pontok jelzik az elérhető meteorológiai állomásokat.

Mozgassa az egeret a pont fölött, hogy megjelenjen az állomás neve.

Azután kattintson az időjárási megfigyelések és előrejelzések megtekintéséhez.

A térkép megváltoztatása: kattintson a fekete keresztel jelölt zöld gombra ráközelítéshez, a vonallal jelölt zöld gombra távolításhoz, vagy a zöld nyilakra a szomszédos térképek eléréséhez.


METAR-TAF: